Latest Weather Observations for Cloncurry

IDQ60801

Issued at 7:05 am EST Friday 24 October 2014 (issued every 30 minutes, with the page automatically refreshed every 10 minutes)

About weather observations | Map of weather stations | Latest weather observations for QLD | Other Formats
Station Details ID: 029141 Name: CLONCURRY AIRPORT Lat: -20.67 Lon: 140.50 Height: 186.0 m
Data from the previous 72 hours. | See also: Recent months at Cloncurry
Date/Time
EST
Temp
°C
App
Temp
°C
Dew
Point
Rel
Hum
%
Delta-T
°C
Wind Press
QNH
hPa
Press
MSL
hPa
Rain
since 9 am
mm
Dir
 
Spd
km/h
Gust
km/h
Spd
kts
Gust
kts
24/07:00am 24.7 20.5 1.6 22 11.0 NE 13 19 7 10 1017.8 1016.7 0.0
24/06:30am 23.5 18.9 1.8 24 10.3 ENE 15 17 8 9 1017.3 1016.2 0.0
24/06:00am 23.2 19.1 2.1 25 10.0 ENE 13 15 7 8 1016.9 1015.7 0.0
24/05:30am 22.8 19.4 1.8 25 9.9 E 9 11 5 6 1016.5 1015.3 0.0
24/05:00am 23.2 19.8 2.1 25 10.0 E 9 11 5 6 1016.4 1015.2 0.0
24/04:30am 23.8 20.0 2.0 24 10.4 E 11 13 6 7 1015.9 1014.7 0.0
24/04:00am 24.5 20.0 2.0 23 10.8 E 15 17 8 9 1015.6 1014.4 0.0
24/03:30am 25.2 21.2 2.6 23 11.0 E 13 17 7 9 1015.4 1014.2 0.0
24/03:00am 25.7 21.4 3.0 23 11.2 E 15 17 8 9 1015.3 1014.1 0.0
24/02:30am 25.9 21.6 3.2 23 11.2 E 15 17 8 9 1015.3 1014.1 0.0
24/02:00am 26.2 22.1 4.1 24 11.1 E 15 19 8 10 1015.5 1014.3 0.0
24/01:30am 26.4 22.2 3.6 23 11.4 E 15 19 8 10 1015.7 1014.5 0.0
24/01:00am 27.1 23.2 3.6 22 11.8 E 13 19 7 10 1015.8 1014.6 0.0
24/12:30am 27.9 23.3 3.6 21 12.3 E 17 20 9 11 1015.9 1014.7 0.0
24/12:00am 28.3 24.1 3.9 21 12.4 E 15 19 8 10 1016.1 1014.9 0.0
 
Date/Time
EST
Temp
°C
App
Temp
°C
Dew
Point
Rel
Hum
%
Delta-T
°C
Wind Press
QNH
hPa
Press
MSL
hPa
Rain
since 9 am
mm
Dir
 
Spd
km/h
Gust
km/h
Spd
kts
Gust
kts
23/11:30pm 28.6 24.0 3.5 20 12.7 E 17 20 9 11 1016.3 1015.1 0.0
23/11:00pm 28.8 24.6 3.6 20 12.8 E 15 20 8 11 1016.4 1015.2 0.0
23/10:30pm 28.6 25.1 3.5 20 12.7 ESE 11 13 6 7 1016.3 1015.1 0.0
23/10:00pm 29.2 25.3 3.2 19 13.1 ESE 13 17 7 9 1016.0 1014.8 0.0
23/09:30pm 29.2 25.9 2.5 18 13.4 ESE 9 13 5 7 1015.7 1014.5 0.0
23/09:00pm 29.9 26.7 3.0 18 13.6 E 9 11 5 6 1015.3 1014.1 0.0
23/08:30pm 30.6 27.0 2.8 17 14.1 E 11 13 6 7 1015.0 1013.8 0.0
23/08:00pm 31.8 27.4 2.9 16 14.8 E 15 17 8 9 1014.5 1013.3 0.0
23/07:30pm 32.6 27.8 2.6 15 15.4 E 17 20 9 11 1014.4 1013.2 0.0
23/07:00pm 33.4 28.0 2.3 14 15.9 E 20 28 11 15 1014.0 1012.8 0.0
23/06:30pm 34.1 28.4 2.8 14 16.2 ESE 22 30 12 16 1013.7 1012.5 0.0
23/06:00pm 34.5 27.5 2.1 13 16.6 E 28 37 15 20 1013.3 1012.2 0.0
23/05:30pm 34.9 29.7 2.4 13 16.8 E 19 28 10 15 1013.0 1011.9 0.0
23/05:00pm 35.4 30.1 2.8 13 17.0 E 20 39 11 21 1012.9 1011.8 0.0
23/04:30pm 35.8 31.1 3.1 13 17.2 E 17 33 9 18 1013.0 1011.9 0.0
23/04:00pm 35.8 29.0 3.1 13 17.2 E 28 35 15 19 1013.0 1011.9 0.0
23/03:30pm 34.8 28.8 3.4 14 16.5 SE 24 37 13 20 1013.3 1012.2 0.0
23/03:00pm 35.7 29.6 3.0 13 17.1 ESE 24 32 13 17 1013.6 1012.4 0.0
23/02:30pm 34.7 29.5 2.3 13 16.7 ESE 19 35 10 19 1014.0 1012.8 0.0
23/02:00pm 34.9 29.7 3.5 14 16.5 ESE 20 30 11 16 1014.5 1013.3 0.0
23/01:30pm 34.2 28.5 2.9 14 16.2 E 22 33 12 18 1014.9 1013.7 0.0
23/01:00pm 34.3 28.8 4.0 15 16.0 ENE 22 43 12 23 1015.4 1014.2 0.0
23/12:30pm 33.6 28.5 4.3 16 15.5 ENE 20 35 11 19 1016.2 1015.0 0.0
23/12:00pm 32.9 29.6 4.6 17 15.0 ENE 11 22 6 12 1016.8 1015.6 0.0
23/11:30am 32.7 30.3 5.3 18 14.7 NNE 7 19 4 10 1017.4 1016.3 0.0
23/11:00am 31.9 28.4 5.4 19 14.1 N 13 19 7 10 1017.9 1016.8 0.0
23/10:30am 30.1 26.0 6.1 22 12.8 N 17 28 9 15 1018.3 1017.2 0.0
23/10:00am 29.9 26.2 6.5 23 12.6 N 15 26 8 14 1018.6 1017.5 0.0
23/09:30am 28.8 25.2 6.8 25 11.8 N 15 20 8 11 1018.9 1017.8 0.0
23/09:00am 27.3 22.8 6.1 26 11.1 N 19 26 10 14 1018.9 1017.8 0.0
23/08:30am 26.9 22.4 6.9 28 10.6 N 20 26 11 14 1018.9 1017.8 0.0
23/08:00am 26.1 22.9 5.1 26 10.8 N 11 17 6 9 1019.0 1017.9 0.0
23/07:30am 25.3 22.8 3.9 25 10.7 NE 6 9 3 5 1018.8 1017.7 0.0
23/07:00am 24.2 20.9 2.4 24 10.5 ESE 9 13 5 7 1018.3 1017.2 0.0
23/06:30am 22.8 19.7 1.2 24 10.1 SE 7 11 4 6 1017.9 1016.8 0.0
23/06:00am 21.6 18.4 -0.4 23 9.8 ESE 6 6 3 3 1017.4 1016.3 0.0
23/05:30am 23.0 18.9 -0.5 21 10.6 ESE 11 13 6 7 1017.0 1015.8 0.0
23/05:00am 23.6 18.8 0.0 21 10.8 E 15 19 8 10 1016.5 1015.3 0.0
23/04:30am 24.1 18.9 0.4 21 11.0 E 17 20 9 11 1016.1 1014.9 0.0
23/04:00am 24.5 18.8 -0.6 19 11.5 E 19 22 10 12 1015.9 1014.7 0.0
23/03:30am 25.0 19.1 -0.9 18 11.8 ESE 20 26 11 14 1016.0 1014.8 0.0
23/03:00am 25.2 19.3 -0.8 18 11.9 ESE 20 24 11 13 1016.1 1014.9 0.0
23/02:30am 25.9 19.6 -1.0 17 12.3 ESE 22 30 12 16 1016.0 1014.8 0.0
23/02:00am 26.2 19.4 -1.6 16 12.6 ESE 24 30 13 16 1016.2 1015.0 0.0
23/01:30am 26.7 20.2 -2.1 15 13.0 ESE 22 28 12 15 1016.4 1015.2 0.0
23/01:00am 27.0 20.6 -1.8 15 13.1 ESE 22 28 12 15 1016.4 1015.2 0.0
23/12:30am 27.8 21.5 -1.2 15 13.5 ESE 22 28 12 15 1016.5 1015.3 0.0
23/12:00am 28.2 21.8 -1.8 14 13.8 ESE 22 30 12 16 1016.6 1015.4 0.0
 
Date/Time
EST
Temp
°C
App
Temp
°C
Dew
Point
Rel
Hum
%
Delta-T
°C
Wind Press
QNH
hPa
Press
MSL
hPa
Rain
since 9 am
mm
Dir
 
Spd
km/h
Gust
km/h
Spd
kts
Gust
kts
22/11:30pm 28.6 22.6 -1.5 14 14.0 SE 20 24 11 13 1016.6 1015.4 0.0
22/11:00pm 28.8 22.8 -1.3 14 14.0 SE 20 26 11 14 1016.6 1015.4 0.0
22/10:30pm 29.3 23.6 -0.9 14 14.2 SE 19 24 10 13 1016.6 1015.4 0.0
22/10:00pm 29.7 24.4 -0.6 14 14.4 SE 17 22 9 12 1016.5 1015.3 0.0
22/09:30pm 29.9 24.6 -0.5 14 14.5 SE 17 22 9 12 1016.3 1015.1 0.0
22/09:00pm 30.0 25.1 -0.4 14 14.5 SE 15 19 8 10 1016.0 1014.8 0.0
22/08:30pm 30.4 25.4 -1.1 13 14.9 SE 15 19 8 10 1015.6 1014.4 0.0
22/08:00pm 31.0 26.5 -0.6 13 15.2 SE 13 15 7 8 1015.3 1014.1 0.0
22/07:30pm 31.6 26.8 -0.1 13 15.4 ESE 15 19 8 10 1015.0 1013.8 0.0
22/07:00pm 32.4 26.7 -0.6 12 16.0 ESE 19 22 10 12 1014.8 1013.6 0.0
22/06:30pm 33.3 27.7 0.1 12 16.4 SE 19 24 10 13 1014.4 1013.2 0.0
22/06:00pm 33.8 28.1 0.5 12 16.6 SE 20 28 11 15 1014.2 1013.0 0.0
22/05:30pm 34.5 27.7 1.0 12 16.9 E 26 33 14 18 1014.1 1012.9 0.0
22/05:00pm 34.2 29.7 1.9 13 16.5 ESE 15 30 8 16 1014.1 1012.9 0.0
22/04:30pm 34.9 28.6 1.3 12 17.1 ESE 24 39 13 21 1014.2 1013.0 0.0
22/04:00pm 35.4 28.9 0.5 11 17.6 E 24 39 13 21 1014.3 1013.1 0.0
22/03:30pm 35.8 30.3 0.8 11 17.7 SE 19 30 10 16 1014.6 1013.4 0.0
22/03:00pm 35.1 28.8 -1.1 10 17.7 E 22 33 12 18 1014.9 1013.7 0.0
22/02:30pm 34.6 27.9 -1.4 10 17.5 ESE 24 35 13 19 1015.3 1014.1 0.0
22/02:00pm 34.4 28.2 -0.3 11 17.1 ESE 22 39 12 21 1016.0 1014.8 0.0
22/01:30pm 33.3 27.5 2.2 14 15.9 ESE 22 37 12 20 1016.6 1015.4 0.0
22/01:00pm 33.6 28.3 6.8 19 14.7 E 24 37 13 20 1017.2 1016.1 0.0
22/12:30pm 31.7 26.6 6.0 20 13.8 E 22 35 12 19 1017.9 1016.8 0.0
22/12:00pm 32.0 25.8 6.2 20 13.9 E 28 35 15 19 1018.4 1017.3 0.0
22/11:30am 31.1 25.4 8.2 24 12.7 ENE 28 41 15 22 1018.8 1017.7 0.0
22/11:00am 30.4 26.1 9.3 27 11.9 ENE 22 35 12 19 1019.5 1018.3 0.0
22/10:30am 29.6 24.1 9.2 28 11.5 E 28 35 15 19 1020.0 1018.8 0.0
22/10:00am 28.5 24.6 8.7 29 10.9 NE 19 26 10 14 1020.3 1019.1 0.0
22/09:30am 27.7 22.2 9.0 31 10.4 ENE 28 37 15 20 1020.4 1019.2 0.0
22/09:00am 27.4 22.6 8.8 31 10.2 NE 24 35 13 19 1020.5 1019.3 0.0
22/08:30am 26.7 21.6 7.7 30 10.2 ENE 24 33 13 18 1020.3 1019.1 0.0
22/08:00am 26.0 20.8 7.1 30 10.0 ENE 24 33 13 18 1019.9 1018.7 0.0
22/07:30am 25.2 20.6 6.4 30 9.8 NE 20 28 11 15 1019.3 1018.1 0.0
22/07:00am 24.1 20.6 5.5 30 9.5 ENE 13 17 7 9 1018.8 1017.7 0.0
22/06:30am 23.0 19.5 5.4 32 8.9 ENE 13 15 7 8 1018.4 1017.3 0.0
22/06:00am 23.0 18.7 5.4 32 8.9 E 17 19 9 10 1017.9 1016.8 0.0
22/05:30am 23.6 19.0 5.5 31 9.2 E 19 22 10 12 1017.4 1016.3 0.0
22/05:00am 24.3 19.5 5.6 30 9.6 E 20 26 11 14 1016.8 1015.6 0.0
22/04:30am 25.1 19.2 5.8 29 10.0 E 26 35 14 19 1016.3 1015.1 0.0
22/04:00am 25.7 19.8 5.8 28 10.3 E 26 35 14 19 1016.0 1014.8 0.0
22/03:30am 25.7 20.1 5.3 27 10.5 ESE 24 32 13 17 1016.2 1015.0 0.0
22/03:00am 25.7 20.0 4.8 26 10.6 ESE 24 37 13 20 1016.2 1015.0 0.0
22/02:30am 25.4 20.4 3.4 24 10.9 ESE 19 24 10 13 1016.2 1015.0 0.0
22/02:00am 25.2 20.3 2.0 22 11.2 ESE 17 20 9 11 1016.5 1015.3 0.0
22/01:30am 25.7 20.8 1.8 21 11.5 ESE 17 20 9 11 1016.8 1015.6 0.0
22/01:00am 26.3 21.2 0.9 19 12.1 ESE 17 22 9 12 1016.9 1015.7 0.0
22/12:30am 26.8 21.7 0.5 18 12.5 ESE 17 20 9 11 1017.2 1016.1 0.0
22/12:00am 27.1 21.5 0.0 17 12.8 ESE 19 22 10 12 1017.4 1016.3 0.0
 
Date/Time
EST
Temp
°C
App
Temp
°C
Dew
Point
Rel
Hum
%
Delta-T
°C
Wind Press
QNH
hPa
Press
MSL
hPa
Rain
since 9 am
mm
Dir
 
Spd
km/h
Gust
km/h
Spd
kts
Gust
kts
21/11:30pm 27.8 22.5 -0.3 16 13.3 SE 17 22 9 12 1017.6 1016.5 0.0
21/11:00pm 27.9 22.7 -0.2 16 13.3 ESE 17 20 9 11 1017.7 1016.6 0.0
21/10:30pm 27.7 22.9 0.5 17 13.0 ESE 15 17 8 9 1017.7 1016.6 0.0
21/10:00pm 29.0 24.3 0.7 16 13.7 SE 15 17 8 9 1017.6 1016.5 0.0
21/09:30pm 29.2 24.9 0.8 16 13.8 SE 13 15 7 8 1017.3 1016.2 0.0
21/09:00pm 29.5 25.1 0.2 15 14.1 SE 13 17 7 9 1016.9 1015.7 0.0
21/08:30pm 30.3 25.5 -0.1 14 14.6 SE 15 17 8 9 1016.6 1015.4 0.0
21/08:00pm 30.1 26.2 -1.3 13 14.8 ESE 9 9 5 5 1016.3 1015.1 0.0
21/07:30pm 31.2 26.5 -1.5 12 15.5 ESE 13 17 7 9 1016.0 1014.8 0.0
21/07:00pm 32.3 26.8 -1.9 11 16.2 ESE 17 20 9 11 1015.7 1014.5 0.0
21/06:30pm 33.5 27.0 -2.3 10 17.0 E 22 33 12 18 1015.3 1014.1 0.0
21/06:00pm 34.3 27.7 -3.1 9 17.6 E 22 32 12 17 1015.0 1013.8 0.0
21/05:30pm 34.6 28.6 -1.4 10 17.5 E 20 30 11 16 1014.7 1013.5 0.0
21/05:00pm 35.1 30.1 1.5 12 17.1 E 17 28 9 15 1014.6 1013.4 0.0
21/04:30pm 35.1 28.8 1.5 12 17.1 E 24 35 13 19 1014.5 1013.3 0.0
21/04:00pm 34.5 28.9 1.0 12 16.9 SE 20 26 11 14 1014.8 1013.6 0.0
21/03:30pm 35.4 28.7 1.7 12 17.3 SE 26 33 14 18 1014.9 1013.7 0.0
21/03:00pm 34.7 29.5 2.3 13 16.7 SE 19 32 10 17 1015.2 1014.0 0.0
21/02:30pm 34.6 31.0 3.2 14 16.4 SE 11 24 6 13 1015.6 1014.4 0.0
21/02:00pm 33.3 28.6 3.2 15 15.6 ESE 17 28 9 15 1016.2 1015.0 0.0
21/01:30pm 32.9 29.7 2.9 15 15.5 ESE 9 17 5 9 1016.8 1015.6 0.0
21/01:00pm 33.4 28.3 3.3 15 15.6 SSE 19 28 10 15 1017.4 1016.3 0.0
21/12:30pm 32.1 27.7 4.8 18 14.4 NE 17 28 9 15 1018.1 1017.0 0.0
21/12:00pm 31.3 26.4 4.2 18 14.1 ENE 19 32 10 17 1018.8 1017.7 0.0
21/11:30am 31.4 28.3 7.1 22 13.3 E 13 30 7 16 1019.5 1018.3 0.0
21/11:00am 30.1 26.1 6.7 23 12.6 ENE 17 28 9 15 1020.0 1018.8 0.0
21/10:30am 29.3 25.8 7.2 25 12.0 NE 15 33 8 18 1020.3 1019.1 0.0
21/10:00am 28.6 24.7 7.2 26 11.5 NE 17 24 9 13 1020.7 1019.5 0.0
21/09:30am 27.5 23.2 6.8 27 11.0 NNE 19 28 10 15 1020.8 1019.6 0.0
21/09:00am 26.7 23.0 6.2 27 10.7 NNE 15 22 8 12 1020.9 1019.7 0.0
21/08:30am 26.7 22.1 6.7 28 10.6 NE 20 30 11 16 1020.7 1019.5 0.0
21/08:00am 26.1 21.4 5.1 26 10.8 ENE 19 28 10 15 1020.3 1019.1 0.0
21/07:30am 25.1 20.4 3.1 24 10.8 E 17 22 9 12 1019.8 1018.6 0.0

Other Formats:

Comma delimited format used in spreadsheet applications
http://www.bom.gov.au/fwo/IDQ60801/IDQ60801.94335.axf

JavaScript Object Notation format (JSON) in row-major order
http://www.bom.gov.au/fwo/IDQ60801/IDQ60801.94335.json